Home > Products > Valid Products > MTR

000
SAZS31 NSTU 290754
MTRPPG
METAR NSTU 290752Z 14018KT 10SM SCT020 BKN040 28/24 A2988 RMK SLP120
 T02750239=




000
SAZS31 NSTU 290702
MTRPPG
METAR NSTU 290658Z 14017KT 10SM SCT023 BKN040 28/24 A2987 RMK SLP117
 T02770237=




000
SAZS31 NSTU 290559
MTRPPG
METAR NSTU 290553Z 14018KT 10SM FEW020 BKN040 BKN100 27/24 A2984 RMK
 SLP107 8/820 T02740240 10287 20274 52014=




000
SAZS31 NSTU 290559
MTRPPG
METAR NSTU 290553Z 14018KT 10SM FEW020 BKN040 BKN100 27/24 A2984 RMK
 SLP107 8/820 T02740240 10287 20274 52014=




000
SAZS31 NSTU 290452
MTRPPG
METAR NSTU 290451Z 14017KT 12SM SCT020 BKN040 BKN100 28/24 A2982 RMK
 SLP100 T02780242=




000
SAZS31 NSTU 290452
MTRPPG
METAR NSTU 290451Z 14017KT 12SM SCT020 BKN040 BKN100 28/24 A2982 RMK
 SLP100 T02780242=




000
SAZS31 NSTU 290354
MTRPPG
METAR NSTU 290350Z 14016KT 12SM SCT020 BKN040 BKN100 28/25 A2981 RMK
 SLP095 T02830246=




000
SAZS31 NSTU 290300
MTRPPG
METAR NSTU 290251Z 14016KT 12SM SCT016 BKN040 BKN100 29/25 A2980 RMK
 SLP093 8/820 T02870246 58015=




000
SAZS31 NSTU 290300
MTRPPG
METAR NSTU 290251Z 14016KT 12SM SCT016 BKN040 BKN100 29/25 A2980 RMK
 SLP093 8/820 T02870246 58015=




000
SAZS31 NSTU 290152
MTRPPG
METAR NSTU 290151Z 15015KT 11SM SCT020 BKN040 BKN100 29/24 A2981 RMK
SLP097 T02850243=




000
SAZS31 NSTU 290152
MTRPPG
METAR NSTU 290151Z 15015KT 11SM SCT020 BKN040 BKN100 29/24 A2981 RMK
SLP097 T02850243=




000
SAZS31 NSTU 290053
MTRPPG
METAR NSTU 290052Z 15017KT 11SM SCT017TCU BKN038 OVC080 28/24 A2983
RMK TCU NW-N-NE SLP103 T02820244=




000
SAZS31 NSTU 290053
MTRPPG
METAR NSTU 290052Z 15017KT 11SM SCT017TCU BKN038 OVC080 28/24 A2983
RMK TCU NW-N-NE SLP103 T02820244=




000
SAZS31 NSTU 282252
MTRPPG
METAR NSTU 282250Z 13016KT 10SM +SHRA FEW007 BKN015TCU OVC038 26/25
A2987 RMK TCU ALQDS SLP115 T02580248=




000
SAZS31 NSTU 282252
MTRPPG
METAR NSTU 282250Z 13016KT 10SM +SHRA FEW007 BKN015TCU OVC038 26/25
A2987 RMK TCU ALQDS SLP115 T02580248=




000
SAZS31 NSTU 282251
MTRPPG
METAR NSTU 282250Z 13016KT 10SM +SHRA FEW007 BKN015TCU OVC038 26/25
A2987 RMK TCU ALQDS SLP115 T02580248=




000
SAZS31 NSTU 282250
MTRPPG
METAR NSTU 282153Z 13009KT 10SM -SHRA FEW007 BKN015TCU OVC040 27/25
A2989 RMK TCU ALQDS SLP124 T02650254=




000
SAZS31 NSTU 282053
MTRPPG
METAR NSTU 282052Z 12015KT 10SM -SHRA SCT017TCU BKN040 OVC080 27/25
A2990 RMK TCU W-N-NE SLP125 60001 8/22/ T02730251 52008=




000
SAZS31 NSTU 281951
MTRPPG
METAR NSTU 281952Z 11015KT 11SM -SHRA SCT017TCU BKN040 OVC080 26/25
A2990 RMK SHRAB15 TCU ALQDS SLP127 T02640250=




000
SAZS31 NSTU 281854
MTRPPG
METAR NSTU 281854Z 16015KT 11SM SCT021CB BKN040 BKN100 28/24 A2989
RMK CB E-SE SLP122 T02770238=




000
SAZS31 NSTU 281854
MTRPPG
METAR NSTU 281854Z 16015KT 11SM SCT021CB BKN040 BKN100 28/24 A2989
RMK CB E-SE SLP122 T02770238=




000
SAZS31 NSTU 281807
MTRPPG
METAR NSTU 281750Z 15015KT 12SM SCT021 SCT040 BKN110 27/24 A2987 RMK
SLP117 8/870 T02730237 10273 20264 51010=




000
SAZS31 NSTU 281753
MTRPPG
METAR NSTU 281750Z 15015KT 12SM SCT021 SCT040 BKN110 27/24 A2987 RMK
SLP117 8/870 T02730237 10273 20264 51010=




000
SAZS31 NSTU 281651
MTRPPG
METAR NSTU 281650Z 16015KT 10SM SCT020 SCT040 BKN110 27/24 A2985 RMK
SLP108 T02720235=




000
SAZS31 NSTU 281651
MTRPPG
METAR NSTU 281650Z 16015KT 10SM SCT020 SCT040 BKN110 27/24 A2985 RMK
SLP108 T02720235=




000
SAZS31 NSTU 281608
MTRPPG
METAR NSTU 281555Z 17014KT 10SM SCT020 SCT040 BKN110 27/24 A2984 RMK
SLP107 T02730237=




000
SAZS31 NSTU 281608
MTRPPG
METAR NSTU 281555Z 17014KT 10SM SCT020 SCT040 BKN110 27/24 A2984 RMK
SLP107 T02730237=




000
SAZS31 NSTU 281459
MTRPPG
METAR NSTU 281352Z 16013KT 10SM SCT022 SCT040 BKN110 27/24 A2985 RMK
SLP110 T02700237=




000
SAZS31 NSTU 281459
MTRPPG
METAR NSTU 281352Z 16013KT 10SM SCT022 SCT040 BKN110 27/24 A2985 RMK
SLP110 T02700237=




000
SAZS31 NSTU 281252
MTRPPG
METAR NSTU 281250Z 16015KT 10SM SCT022 SCT040 BKN110 27/24 A2986 RMK
SLP112 T02720237=




000
SAZS31 NSTU 281154
MTRPPG
METAR NSTU 281151Z 14015KT 10SM SCT018 BKN040 OVC110 26/24 A2987 RMK
SHRAB30E50 SLP117 60001 70001 8/87/ T02640241 10280 20264 57008=




000
SAZS31 NSTU 281154
MTRPPG
METAR NSTU 281151Z 14015KT 10SM SCT018 BKN040 OVC110 26/24 A2987 RMK
SHRAB30E50 SLP117 60001 70001 8/87/ T02640241 10280 20264 57008=




000
SAZS31 NSTU 281053
MTRPPG
METAR NSTU 281052Z 16015KT 10SM SCT022 BKN045 BKN120 27/24 A2988 RMK
SLP119 T02720243 402940247=




000
SAZS31 NSTU 280951
MTRPPG
METAR NSTU 280951Z 15015KT 10SM SCT025 BKN045 BKN120 28/24 A2989 RMK
SLP124 T02780240=




000
SAZS31 NSTU 280851
MTRPPG
METAR NSTU 280850Z 15016KT 10SM FEW025 SCT045 BKN120 28/24 A2990 RMK
SLP125 8/870 T02770244 52015=




000
SAZS31 NSTU 280751
MTRPPG
METAR NSTU 280750Z 16016KT 10SM FEW025 SCT045 BKN120 28/24 A2989 RMK
SLP124 T02790244=




000
SAZS31 NSTU 280751
MTRPPG
METAR NSTU 280750Z 16016KT 10SM FEW025 SCT045 BKN120 28/24 A2989 RMK
SLP124 T02790244=




000
SAZS31 NSTU 280653
MTRPPG
METAR NSTU 280650Z 16017KT 11SM SCT025 BKN045 BKN100 28/24 A2987 RMK
SLP117 T02800243=




000
SAZS31 NSTU 280601
MTRPPG
METAR NSTU 280550Z 16017KT 10SM SCT025 BKN045 BKN100 28/24 A2985 RMK
SLP110 8/870 T02800242 10288 20280 52017=




000
SAZS31 NSTU 280456
MTRPPG
METAR NSTU 280450Z 16016KT 12SM SCT021 BKN040 BKN100 28/24 A2983 RMK
SLP103 T02800244=




000
SAZS31 NSTU 280355
MTRPPG
METAR NSTU 280352Z 16014G20KT 12SM SCT023 BKN040 BKN100 28/25 A2981
RMK SLP097 T02830246=




000
SAZS31 NSTU 280251
MTRPPG
METAR NSTU 280250Z 16017KT 12SM SCT023 BKN040 BKN100 28/24 A2980 RMK
SLP093 8/870 T02840244 56007=




000
SAZS31 NSTU 280150
MTRPPG
METAR NSTU 280150Z 17015KT 12SM SCT020 BKN040 BKN100 29/25 A2981 RMK
SLP095 T02860248=




000
SAZS31 NSTU 280150
MTRPPG
METAR NSTU 280150Z 17015KT 12SM SCT020 BKN040 BKN100 29/25 A2981 RMK
SLP095 T02860248=




000
SAZS31 NSTU 280052
MTRPPG
METAR NSTU 280050Z 17013KT 12SM FEW014CB SCT040 BKN080 29/25 A2982
RMK CB NE-E SLP098 T02860252=




000
SAZS31 NSTU 280000
MTRPPG
METAR NSTU 272353Z 18013KT 10SM FEW017CB BKN040 OVC080 29/26 A2982
RMK DSNT VCSH NW-N CB SE-S SLP100 60000
8/32/ T02880257 10294 20267=





000
SAZS31 NSTU 280000
MTRPPG
METAR NSTU 272353Z 18013KT 10SM FEW017CB BKN040 OVC080 29/26 A2982
RMK DSNT VCSH NW-N CB SE-S SLP100 60000
8/32/ T02880257 10294 20267=





000
SAZS31 NSTU 272300
MTRPPG
METAR NSTU 272254Z 15011KT 11SM FEW017 SCT040 BKN080 29/26 A2984 RMK
SLP105 T02940261=





000
SAZS31 NSTU 272200
MTRPPG
METAR NSTU 272154Z 17015KT 10SM -SHRA SCT017CB BKN040 OVC080 29/26
A2905 RMK SHRAB47 CB NW-N-NE SLP110 T02850257=





000
SAZS31 NSTU 272200
MTRPPG
METAR NSTU 272154Z 17015KT 10SM -SHRA SCT017CB BKN040 OVC080 29/26
A2905 RMK SHRAB47 CB NW-N-NE SLP110 T02850257=





000
SAZS31 NSTU 272101
MTRPPG
METAR NSTU 272055Z 15015KT 12SM SCT017CB BKN040 BKN100 28/25 A2986
RMK CB NW-N-NE SLP113 8/370 T02810253 52014=




000
SAZS31 NSTU 272000
MTRPPG
METAR NSTU 271950Z 15013KT 12SM SCT017CB BKN040 BKN100 28/26 A2985
RMK CB NW-N-NE SLP108 T02840257=





000
SAZS31 NSTU 271900
MTRPPG
METAR NSTU 271850Z 14012KT 11SM FEW017 SCT040 BKN100 28/26 A2984
RMK SLP105 T02760155=





000
SAZS31 NSTU 271753
MTRPPG
METAR NSTU 271751Z 14010KT 11SM SCT017 SCT040 BKN100 27/25 A2982 RMK
SLP100 8/170 T02670253 10267 20247 52014=




000
SAZS31 NSTU 271652
MTRPPG
METAR NSTU 271652Z 15010KT 10SM SCT017 SCT040 BKN100 26/25 A2980 RMK
SLP091 T02640252=




000
SAZS31 NSTU 271609
MTRPPG
METAR NSTU 271555Z 16009KT 10SM SCT015 BKN040 OVC100 27/26 A2979 RMK
SLP088 T02650256=




000
SAZS31 NSTU 271501
MTRPPG
METAR NSTU 271458Z 00000KT 10SM SCT015 BKN040 OVC100 26/25 A2978 RMK
SLP086 8/87/ T02570251 56010=




000
SAZS31 NSTU 271501
MTRPPG
METAR NSTU 271354Z 00000KT 10SM SCT015 BKN040 OVC100 26/25 A2979 RMK
SLP088 T02570254=




000
SAZS31 NSTU 271256
MTRPPG
METAR NSTU 271255Z VRB03KT 10SM SCT015 BKN040 OVC100 25/24 A2980 RMK
SLP093 T02470244=




000
SAZS31 NSTU 271155
MTRPPG
METAR NSTU 271151Z 00000KT 10SM SCT015 SCT040 BKN100 25/25 A2981 RMK
SHRAE20 SLP097 60003 70125 8/870 T02510246 10269 20251 57005=




000
SAZS31 NSTU 271054
MTRPPG
METAR NSTU 271052Z VRB03KT 5SM -SHRA BKN015 BKN036 OVC080 26/25
A2983 RMK SHRAB10 SLP103 T02550246 402730243=




000
SAZS31 NSTU 270953
MTRPPG
METAR NSTU 270950Z 14012KT 10SM BKN016 OVC030 27/26 A2984 RMK
SHRAE45 SLP105 T02690257=




000
SAZS31 NSTU 270857
MTRPPG
METAR NSTU 270850Z 12009KT 10SM -SHRA BKN016 OVC030 26/25 A2983 RMK
SHRAB40 SLP102 60000 8/8// T02620254 52020=




000
SAZS31 NSTU 270752
MTRPPG
METAR NSTU 270750Z 00000KT 10SM BKN016 OVC030 26/25 A2981 RMK SLP095
 T02590252=




000
SAZS31 NSTU 270654
MTRPPG
METAR NSTU 270650Z VRB03KT 10SM BKN016 OVC030 26/25 A2979 RMK SLP088
 T02560250=




000
SAZS31 NSTU 270556
MTRPPG
METAR NSTU 270550Z 00000KT 10SM FEW012 OVC030 26/25 A2977 RMK RAE45
SLP081 60017 8/5// T02600252 10265 20248 52010=




000
SAZS31 NSTU 270450
MTRPPG
METAR NSTU 270450Z 00000KT 11SM RA FEW010 SCT015 OVC030 26/25 A2975
RMK SLP076 T02600250=




000
SAZS31 NSTU 270352
MTRPPG
METAR NSTU 270350Z 19003KT 11SM -SHRA FEW010 BKN015 OVC035 26/25
A2974 RMK SLP073 T02630251=




000
SAZS31 NSTU 270258
MTRPPG
METAR NSTU 270255Z 21005KT 11SM -SHRA FEW008 SCT020 OVC030 27/26
A2974 RMK SLP071 60017 8/8// T02650255 56015=




000
SAZS31 NSTU 270151
MTRPPG
METAR NSTU 270150Z VRB03KT 10SM -SHRA SCT016 BKN038 OVC080 25/24
A2974 RMK SLP071 T02480242=




000
SAZS31 NSTU 270055
MTRPPG
METAR NSTU 270050Z VRB03KT 10SM -SHRA SCT016 BKN038 OVC080 25/24
A2975 RMK SLP075 T02480242=




000
SAZS31 NSTU 270007
MTRPPG
METAR NSTU 262350Z 00000KT 8SM -SHRA SCT014 BKN038 OVC080 25/24
A2978 RMK SHRAB05 SLP086 60056 8/82/ T02500244 10265 20243 56008=




000
SAZS31 NSTU 270007
MTRPPG
METAR NSTU 262350Z 00000KT 8SM -SHRA SCT014 BKN038 OVC080 25/24
A2978 RMK SHRAB05 SLP086 60056 8/82/ T02500244 10265 20243 56008=




000
SAZS31 NSTU 262252
MTRPPG
METAR NSTU 262251Z VRB03KT 12SM SCT014 BKN038 OVC080 25/25 A2979 RMK
TSE08 SHRAE48 SLP088 T02510245=




000
SAZS31 NSTU 262153
MTRPPG
METAR NSTU 262151Z VRB03KT 10SM TS -SHRA FEW005 SCT018CB BKN038
OVC090 25/24 A2981 RMK TSB18 SE-S-SW MOV W CB SE-S-SW SLP095
T02470240=




000
SAZS31 NSTU 261956
MTRPPG
METAR NSTU 261950Z 10009KT 1/4SM TS SHRA FEW006 BKN014CB OVC038
25/24 A2979 RMK TSB45 CB NE-E-SE MOV W-SW SLP088 T02470241=




000
SAZS31 NSTU 261854
MTRPPG
METAR NSTU 261852Z 09011KT 10SM -SHRA FEW006 SCT018 BKN038 OVC090
26/25 A2976 RMK SLP080 T02590254=




000
SAZS31 NSTU 261754
MTRPPG
METAR NSTU 261750Z 08011KT 3SM SHRA SCT006 BKN013 OVC036 27/26 A2974
RMK SLP073 60049 8/8// T02650259 10273 20262 52008=




000
SAZS31 NSTU 261754
MTRPPG
METAR NSTU 261750Z 08011KT 3SM SHRA SCT006 BKN013 OVC036 27/26 A2974
RMK SLP073 60049 8/8// T02650259 10273 20262 52008=




000
SAZS31 NSTU 261650
MTRPPG
METAR NSTU 261554Z 12010KT 5SM -SHRA BKN015 BKN040 OVC100 26/26
A2972 RMK SLP064 T02620259=




000
SAZS31 NSTU 261650
MTRPPG
METAR NSTU 261554Z 12010KT 5SM -SHRA BKN015 BKN040 OVC100 26/26
A2972 RMK SLP064 T02620259=




000
SAZS31 NSTU 261450
MTRPPG
METAR NSTU 261450Z VRB06KT 7SM -SHRA SCT015 BKN040 OVC100 27/26
A2972 RMK SLP064 60019 8/87/ T02660259 57008=




000
SAZS31 NSTU 261351
MTRPPG
METAR NSTU 261350Z VRB04KT 7SM -SHRA SCT015 BKN040 OVC100 27/26
A2972 RMK SLP066 T02700263=




000
SAZS31 NSTU 261253
MTRPPG
METAR NSTU 261253Z 16008KT 5SM -SHRA SCT015 BKN040 OVC100 27/26
A2973 RMK SHRAB45 SLP069 T02730262=




000
SAZS31 NSTU 261151
MTRPPG
METAR NSTU 261150Z VRB06KT 10SM SCT018 SCT050 BKN110 27/26 A2974 RMK
SLP073 60000 70002 8/870 T02720261 10272 20258 57002=




000
SAZS31 NSTU 261054
MTRPPG
METAR NSTU 261052Z 00000KT 10SM SCT018 SCT045 BKN110 27/26 A2975 RMK
SLP076 T02680259 402970258=




000
SAZS31 NSTU 261054
MTRPPG
METAR NSTU 261052Z 00000KT 10SM SCT018 SCT045 BKN110 27/26 A2975 RMK
SLP076 T02680259 402970258=




000
SAZS31 NSTU 260955
MTRPPG
METAR NSTU 260954Z 18003KT 10SM SCT016 BKN045 27/26 A2975 RMK SLP076
 T02690260=




000
SAZS31 NSTU 260955
MTRPPG
METAR NSTU 260954Z 18003KT 10SM SCT016 BKN045 27/26 A2975 RMK SLP076
 T02690260=




000
SAZS31 NSTU 260853
MTRPPG
METAR NSTU 260852Z 31003KT 10SM VCSH SCT014 BKN035 27/26 A2975 RMK
VCSH W SLP075 60000 8/400 T02680259 52005=




000
SAZS31 NSTU 260853
MTRPPG
METAR NSTU 260852Z 31003KT 10SM VCSH SCT014 BKN035 27/26 A2975 RMK
VCSH W SLP075 60000 8/400 T02680259 52005=




    US Dept of Commerce
    National Oceanic and Atmospheric Administration
    National Weather Service
    1325 East West Highway
    Silver Spring, MD 20910
    Page Author: NWS Internet Services Team
Disclaimer
Information Quality
Credits
Glossary
Privacy Policy
Freedom of Information Act (FOIA)
About Us
Career Opportunities